Oxford, Wisconsin
Current Conditions -  °F | °C
As of 5:50 AM on Wednesday 28 Jan 2015 (Local Time) from KDLL Reporting Station
Overcast Overcast  
Wind Chill: 15°   Ceiling: 1400
Heat Index: 24°   Visibility: 10mi
Dew Point: 20°   Wind: 8mph
Humidity: 87%   Direction: 180°S
Pressure: 30.18"   Gusts: NA
Location:  43.78°N, 89.57°W
Report Text: KDLL 281150Z AUTO 18007KT 10SM OVC014 M05/M06 A3018 RMK AO2 T10471065 11031 21047
Loading
Personal Weather Stations






























Interactive Weather Map New forecast layout! Learn more

10-Day Weather Forecast

Advertisements
Track Severe Weather on mobile